sensor_id;sensor_type;location;lat;lon;timestamp;P1;durP1;ratioP1;P2;durP2;ratioP2
11988;SDS011;6054;50.966;7.094;2022-12-07T00:00:46;29.40;;;17.00;;
11988;SDS011;6054;50.966;7.094;2022-12-07T00:03:12;32.13;;;16.13;;
11988;SDS011;6054;50.966;7.094;2022-12-07T00:05:39;30.30;;;16.97;;
11988;SDS011;6054;50.966;7.094;2022-12-07T00:08:06;29.97;;;16.57;;
11988;SDS011;6054;50.966;7.094;2022-12-07T00:10:33;30.73;;;16.73;;
11988;SDS011;6054;50.966;7.094;2022-12-07T00:12:59;32.50;;;17.00;;
11988;SDS011;6054;50.966;7.094;2022-12-07T00:15:26;31.60;;;16.97;;
11988;SDS011;6054;50.966;7.094;2022-12-07T00:17:54;28.53;;;17.00;;
11988;SDS011;6054;50.966;7.094;2022-12-07T00:20:21;30.60;;;17.47;;
11988;SDS011;6054;50.966;7.094;2022-12-07T00:22:48;30.73;;;17.00;;
11988;SDS011;6054;50.966;7.094;2022-12-07T00:25:15;29.20;;;17.03;;
11988;SDS011;6054;50.966;7.094;2022-12-07T00:27:41;29.07;;;16.27;;
11988;SDS011;6054;50.966;7.094;2022-12-07T00:30:09;31.43;;;17.20;;
11988;SDS011;6054;50.966;7.094;2022-12-07T00:32:36;32.87;;;16.53;;
11988;SDS011;6054;50.966;7.094;2022-12-07T00:35:04;26.70;;;16.10;;
11988;SDS011;6054;50.966;7.094;2022-12-07T00:37:31;28.60;;;16.07;;
11988;SDS011;6054;50.966;7.094;2022-12-07T00:39:58;30.30;;;17.83;;
11988;SDS011;6054;50.966;7.094;2022-12-07T00:42:25;29.87;;;15.83;;
11988;SDS011;6054;50.966;7.094;2022-12-07T00:44:51;24.07;;;15.73;;
11988;SDS011;6054;50.966;7.094;2022-12-07T00:47:18;27.70;;;16.30;;
11988;SDS011;6054;50.966;7.094;2022-12-07T00:49:45;25.27;;;16.83;;
11988;SDS011;6054;50.966;7.094;2022-12-07T00:52:13;28.30;;;16.87;;
11988;SDS011;6054;50.966;7.094;2022-12-07T00:54:40;26.10;;;15.73;;
11988;SDS011;6054;50.966;7.094;2022-12-07T00:57:06;27.87;;;16.53;;
11988;SDS011;6054;50.966;7.094;2022-12-07T00:59:33;24.93;;;16.43;;
11988;SDS011;6054;50.966;7.094;2022-12-07T01:02:00;28.90;;;16.50;;
11988;SDS011;6054;50.966;7.094;2022-12-07T01:04:27;25.70;;;16.57;;
11988;SDS011;6054;50.966;7.094;2022-12-07T01:06:54;30.03;;;16.57;;
11988;SDS011;6054;50.966;7.094;2022-12-07T01:09:22;27.53;;;16.03;;
11988;SDS011;6054;50.966;7.094;2022-12-07T01:11:49;28.05;;;16.67;;
11988;SDS011;6054;50.966;7.094;2022-12-07T01:14:16;25.13;;;16.73;;
11988;SDS011;6054;50.966;7.094;2022-12-07T01:16:44;27.50;;;16.10;;
11988;SDS011;6054;50.966;7.094;2022-12-07T01:19:11;27.13;;;16.00;;
11988;SDS011;6054;50.966;7.094;2022-12-07T01:21:37;28.20;;;16.23;;
11988;SDS011;6054;50.966;7.094;2022-12-07T01:24:05;30.30;;;16.10;;
11988;SDS011;6054;50.966;7.094;2022-12-07T01:26:36;27.00;;;16.30;;
11988;SDS011;6054;50.966;7.094;2022-12-07T01:29:04;25.33;;;16.00;;
11988;SDS011;6054;50.966;7.094;2022-12-07T01:31:31;29.27;;;16.97;;
11988;SDS011;6054;50.966;7.094;2022-12-07T01:33:58;24.93;;;16.37;;
11988;SDS011;6054;50.966;7.094;2022-12-07T01:36:26;25.07;;;17.13;;
11988;SDS011;6054;50.966;7.094;2022-12-07T01:38:55;27.77;;;16.17;;
11988;SDS011;6054;50.966;7.094;2022-12-07T01:41:24;28.20;;;17.17;;
11988;SDS011;6054;50.966;7.094;2022-12-07T01:46:48;28.10;;;17.63;;
11988;SDS011;6054;50.966;7.094;2022-12-07T01:49:18;27.60;;;17.37;;
11988;SDS011;6054;50.966;7.094;2022-12-07T01:51:49;26.83;;;16.70;;
11988;SDS011;6054;50.966;7.094;2022-12-07T01:54:20;26.73;;;17.30;;
11988;SDS011;6054;50.966;7.094;2022-12-07T01:56:49;26.43;;;17.10;;
11988;SDS011;6054;50.966;7.094;2022-12-07T01:59:19;25.80;;;17.17;;
11988;SDS011;6054;50.966;7.094;2022-12-07T02:01:50;27.53;;;17.63;;
11988;SDS011;6054;50.966;7.094;2022-12-07T02:04:17;27.23;;;17.17;;
11988;SDS011;6054;50.966;7.094;2022-12-07T02:06:44;25.67;;;17.33;;
11988;SDS011;6054;50.966;7.094;2022-12-07T02:09:13;23.93;;;16.43;;
11988;SDS011;6054;50.966;7.094;2022-12-07T02:11:40;28.03;;;17.77;;
11988;SDS011;6054;50.966;7.094;2022-12-07T02:14:07;28.03;;;17.80;;
11988;SDS011;6054;50.966;7.094;2022-12-07T02:16:37;30.50;;;17.70;;
11988;SDS011;6054;50.966;7.094;2022-12-07T02:19:39;32.70;;;17.13;;
11988;SDS011;6054;50.966;7.094;2022-12-07T02:25:22;27.10;;;16.53;;
11988;SDS011;6054;50.966;7.094;2022-12-07T02:28:01;29.77;;;16.90;;
11988;SDS011;6054;50.966;7.094;2022-12-07T02:30:34;32.77;;;17.87;;
11988;SDS011;6054;50.966;7.094;2022-12-07T02:33:07;29.63;;;17.77;;
11988;SDS011;6054;50.966;7.094;2022-12-07T02:35:42;28.30;;;17.17;;
11988;SDS011;6054;50.966;7.094;2022-12-07T02:38:13;31.70;;;18.00;;
11988;SDS011;6054;50.966;7.094;2022-12-07T02:40:46;30.33;;;17.73;;
11988;SDS011;6054;50.966;7.094;2022-12-07T02:43:18;26.23;;;17.07;;
11988;SDS011;6054;50.966;7.094;2022-12-07T02:45:51;30.23;;;17.70;;
11988;SDS011;6054;50.966;7.094;2022-12-07T02:48:20;24.77;;;16.40;;
11988;SDS011;6054;50.966;7.094;2022-12-07T02:50:48;25.87;;;17.03;;
11988;SDS011;6054;50.966;7.094;2022-12-07T02:53:28;30.00;;;17.40;;
11988;SDS011;6054;50.966;7.094;2022-12-07T02:55:56;29.57;;;18.03;;
11988;SDS011;6054;50.966;7.094;2022-12-07T02:58:26;32.67;;;18.30;;
11988;SDS011;6054;50.966;7.094;2022-12-07T03:01:07;27.60;;;17.23;;
11988;SDS011;6054;50.966;7.094;2022-12-07T03:03:39;29.67;;;17.83;;
11988;SDS011;6054;50.966;7.094;2022-12-07T03:06:14;26.50;;;17.33;;
11988;SDS011;6054;50.966;7.094;2022-12-07T03:08:48;31.67;;;18.20;;
11988;SDS011;6054;50.966;7.094;2022-12-07T03:11:22;30.87;;;17.50;;
11988;SDS011;6054;50.966;7.094;2022-12-07T03:13:58;28.20;;;17.47;;
11988;SDS011;6054;50.966;7.094;2022-12-07T03:16:31;29.23;;;18.00;;
11988;SDS011;6054;50.966;7.094;2022-12-07T03:19:02;33.63;;;18.43;;
11988;SDS011;6054;50.966;7.094;2022-12-07T03:21:32;28.02;;;19.20;;
11988;SDS011;6054;50.966;7.094;2022-12-07T03:24:04;29.87;;;17.50;;
11988;SDS011;6054;50.966;7.094;2022-12-07T03:26:35;28.13;;;17.70;;
11988;SDS011;6054;50.966;7.094;2022-12-07T03:29:05;26.67;;;18.40;;
11988;SDS011;6054;50.966;7.094;2022-12-07T03:31:36;35.13;;;18.83;;
11988;SDS011;6054;50.966;7.094;2022-12-07T03:34:07;27.00;;;17.60;;
11988;SDS011;6054;50.966;7.094;2022-12-07T03:36:40;33.03;;;18.97;;
11988;SDS011;6054;50.966;7.094;2022-12-07T03:39:14;30.42;;;17.85;;
11988;SDS011;6054;50.966;7.094;2022-12-07T03:41:48;25.87;;;17.90;;
11988;SDS011;6054;50.966;7.094;2022-12-07T03:44:16;29.60;;;19.13;;
11988;SDS011;6054;50.966;7.094;2022-12-07T03:46:46;31.10;;;19.07;;
11988;SDS011;6054;50.966;7.094;2022-12-07T03:49:18;26.57;;;19.07;;
11988;SDS011;6054;50.966;7.094;2022-12-07T03:51:52;30.97;;;19.80;;
11988;SDS011;6054;50.966;7.094;2022-12-07T03:54:23;27.50;;;18.57;;
11988;SDS011;6054;50.966;7.094;2022-12-07T03:56:54;32.70;;;18.60;;
11988;SDS011;6054;50.966;7.094;2022-12-07T03:59:22;29.15;;;19.10;;
11988;SDS011;6054;50.966;7.094;2022-12-07T04:01:52;33.10;;;19.13;;
11988;SDS011;6054;50.966;7.094;2022-12-07T04:04:20;29.43;;;18.93;;
11988;SDS011;6054;50.966;7.094;2022-12-07T04:06:47;34.77;;;19.67;;
11988;SDS011;6054;50.966;7.094;2022-12-07T04:09:14;30.60;;;19.60;;
11988;SDS011;6054;50.966;7.094;2022-12-07T04:11:41;29.40;;;20.13;;
11988;SDS011;6054;50.966;7.094;2022-12-07T04:14:08;34.93;;;20.50;;
11988;SDS011;6054;50.966;7.094;2022-12-07T04:16:44;39.37;;;20.07;;
11988;SDS011;6054;50.966;7.094;2022-12-07T04:19:13;33.17;;;20.07;;
11988;SDS011;6054;50.966;7.094;2022-12-07T04:21:40;36.03;;;19.90;;
11988;SDS011;6054;50.966;7.094;2022-12-07T04:24:07;35.53;;;19.80;;
11988;SDS011;6054;50.966;7.094;2022-12-07T04:26:34;34.73;;;20.80;;
11988;SDS011;6054;50.966;7.094;2022-12-07T04:29:04;34.27;;;21.23;;
11988;SDS011;6054;50.966;7.094;2022-12-07T04:31:31;34.93;;;20.90;;
11988;SDS011;6054;50.966;7.094;2022-12-07T04:33:58;32.77;;;21.00;;
11988;SDS011;6054;50.966;7.094;2022-12-07T04:36:26;29.07;;;19.43;;
11988;SDS011;6054;50.966;7.094;2022-12-07T04:38:53;35.37;;;19.60;;
11988;SDS011;6054;50.966;7.094;2022-12-07T04:41:21;37.80;;;20.33;;
11988;SDS011;6054;50.966;7.094;2022-12-07T04:43:52;34.90;;;20.07;;
11988;SDS011;6054;50.966;7.094;2022-12-07T04:46:20;35.03;;;19.40;;
11988;SDS011;6054;50.966;7.094;2022-12-07T04:48:46;34.10;;;20.70;;
11988;SDS011;6054;50.966;7.094;2022-12-07T04:51:14;37.53;;;21.67;;
11988;SDS011;6054;50.966;7.094;2022-12-07T04:53:45;36.60;;;20.43;;
11988;SDS011;6054;50.966;7.094;2022-12-07T04:56:13;44.53;;;21.60;;
11988;SDS011;6054;50.966;7.094;2022-12-07T04:58:40;37.78;;;20.75;;
11988;SDS011;6054;50.966;7.094;2022-12-07T05:01:07;38.83;;;20.87;;
11988;SDS011;6054;50.966;7.094;2022-12-07T05:03:35;39.93;;;21.10;;
11988;SDS011;6054;50.966;7.094;2022-12-07T05:06:02;33.97;;;20.42;;
11988;SDS011;6054;50.966;7.094;2022-12-07T05:08:29;37.23;;;20.07;;
11988;SDS011;6054;50.966;7.094;2022-12-07T05:10:58;35.33;;;20.60;;
11988;SDS011;6054;50.966;7.094;2022-12-07T05:13:24;32.88;;;20.08;;
11988;SDS011;6054;50.966;7.094;2022-12-07T05:15:51;36.95;;;20.45;;
11988;SDS011;6054;50.966;7.094;2022-12-07T05:18:18;35.87;;;21.07;;
11988;SDS011;6054;50.966;7.094;2022-12-07T05:20:45;36.38;;;20.85;;
11988;SDS011;6054;50.966;7.094;2022-12-07T05:23:12;37.80;;;20.73;;
11988;SDS011;6054;50.966;7.094;2022-12-07T05:25:39;37.30;;;20.80;;
11988;SDS011;6054;50.966;7.094;2022-12-07T05:28:07;36.87;;;20.53;;
11988;SDS011;6054;50.966;7.094;2022-12-07T05:30:34;38.67;;;20.73;;
11988;SDS011;6054;50.966;7.094;2022-12-07T05:33:01;42.60;;;20.83;;
11988;SDS011;6054;50.966;7.094;2022-12-07T05:35:28;37.93;;;20.07;;
11988;SDS011;6054;50.966;7.094;2022-12-07T05:37:55;35.90;;;20.23;;
11988;SDS011;6054;50.966;7.094;2022-12-07T05:40:23;31.57;;;19.50;;
11988;SDS011;6054;50.966;7.094;2022-12-07T05:42:50;38.27;;;20.23;;
11988;SDS011;6054;50.966;7.094;2022-12-07T05:45:17;33.33;;;20.30;;
11988;SDS011;6054;50.966;7.094;2022-12-07T05:47:44;31.93;;;19.53;;
11988;SDS011;6054;50.966;7.094;2022-12-07T05:50:11;36.17;;;19.10;;
11988;SDS011;6054;50.966;7.094;2022-12-07T05:52:37;36.13;;;19.37;;
11988;SDS011;6054;50.966;7.094;2022-12-07T05:55:04;30.87;;;19.47;;
11988;SDS011;6054;50.966;7.094;2022-12-07T05:57:32;34.00;;;19.90;;
11988;SDS011;6054;50.966;7.094;2022-12-07T05:59:59;34.70;;;19.70;;
11988;SDS011;6054;50.966;7.094;2022-12-07T06:02:26;32.83;;;19.30;;
11988;SDS011;6054;50.966;7.094;2022-12-07T06:04:53;35.77;;;19.20;;
11988;SDS011;6054;50.966;7.094;2022-12-07T06:07:20;33.87;;;19.83;;
11988;SDS011;6054;50.966;7.094;2022-12-07T06:09:46;29.03;;;19.93;;
11988;SDS011;6054;50.966;7.094;2022-12-07T06:12:13;31.13;;;19.23;;
11988;SDS011;6054;50.966;7.094;2022-12-07T06:15:06;30.40;;;18.50;;
11988;SDS011;6054;50.966;7.094;2022-12-07T06:17:35;29.10;;;18.67;;
11988;SDS011;6054;50.966;7.094;2022-12-07T06:20:02;27.53;;;18.27;;
11988;SDS011;6054;50.966;7.094;2022-12-07T06:22:29;27.30;;;17.83;;
11988;SDS011;6054;50.966;7.094;2022-12-07T06:24:56;27.97;;;17.83;;
11988;SDS011;6054;50.966;7.094;2022-12-07T06:27:23;31.30;;;18.33;;
11988;SDS011;6054;50.966;7.094;2022-12-07T06:29:50;30.53;;;17.93;;
11988;SDS011;6054;50.966;7.094;2022-12-07T06:32:16;27.97;;;17.83;;
11988;SDS011;6054;50.966;7.094;2022-12-07T06:34:44;28.00;;;17.67;;
11988;SDS011;6054;50.966;7.094;2022-12-07T06:37:13;27.80;;;17.57;;
11988;SDS011;6054;50.966;7.094;2022-12-07T06:39:40;28.83;;;16.87;;
11988;SDS011;6054;50.966;7.094;2022-12-07T06:42:07;27.17;;;16.43;;
11988;SDS011;6054;50.966;7.094;2022-12-07T06:44:34;27.07;;;16.97;;
11988;SDS011;6054;50.966;7.094;2022-12-07T06:47:00;29.30;;;18.13;;
11988;SDS011;6054;50.966;7.094;2022-12-07T06:49:28;25.90;;;17.23;;
11988;SDS011;6054;50.966;7.094;2022-12-07T06:51:56;28.27;;;17.07;;
11988;SDS011;6054;50.966;7.094;2022-12-07T06:54:23;25.33;;;18.00;;
11988;SDS011;6054;50.966;7.094;2022-12-07T06:56:50;35.40;;;19.73;;
11988;SDS011;6054;50.966;7.094;2022-12-07T06:59:16;28.73;;;17.53;;
11988;SDS011;6054;50.966;7.094;2022-12-07T07:01:43;31.83;;;18.57;;
11988;SDS011;6054;50.966;7.094;2022-12-07T07:04:10;30.17;;;20.30;;
11988;SDS011;6054;50.966;7.094;2022-12-07T07:06:37;26.07;;;16.63;;
11988;SDS011;6054;50.966;7.094;2022-12-07T07:09:05;28.03;;;16.73;;
11988;SDS011;6054;50.966;7.094;2022-12-07T07:11:34;26.77;;;15.33;;
11988;SDS011;6054;50.966;7.094;2022-12-07T07:14:01;28.88;;;15.63;;
11988;SDS011;6054;50.966;7.094;2022-12-07T07:16:28;32.67;;;16.73;;
11988;SDS011;6054;50.966;7.094;2022-12-07T07:18:55;27.17;;;15.47;;
11988;SDS011;6054;50.966;7.094;2022-12-07T07:21:22;28.63;;;15.80;;
11988;SDS011;6054;50.966;7.094;2022-12-07T07:23:49;30.57;;;16.37;;
11988;SDS011;6054;50.966;7.094;2022-12-07T07:26:18;26.53;;;15.77;;
11988;SDS011;6054;50.966;7.094;2022-12-07T07:28:45;24.23;;;15.63;;
11988;SDS011;6054;50.966;7.094;2022-12-07T07:31:12;29.20;;;16.77;;
11988;SDS011;6054;50.966;7.094;2022-12-07T07:33:38;29.57;;;16.23;;
11988;SDS011;6054;50.966;7.094;2022-12-07T07:36:05;27.70;;;17.17;;
11988;SDS011;6054;50.966;7.094;2022-12-07T07:38:33;31.30;;;17.50;;
11988;SDS011;6054;50.966;7.094;2022-12-07T07:40:59;31.23;;;18.27;;
11988;SDS011;6054;50.966;7.094;2022-12-07T07:43:27;39.47;;;18.37;;
11988;SDS011;6054;50.966;7.094;2022-12-07T07:45:54;30.77;;;16.13;;
11988;SDS011;6054;50.966;7.094;2022-12-07T07:48:21;30.73;;;16.63;;
11988;SDS011;6054;50.966;7.094;2022-12-07T07:50:50;47.53;;;17.02;;
11988;SDS011;6054;50.966;7.094;2022-12-07T07:53:17;32.60;;;16.63;;
11988;SDS011;6054;50.966;7.094;2022-12-07T07:55:49;34.37;;;15.77;;
11988;SDS011;6054;50.966;7.094;2022-12-07T07:58:17;34.50;;;16.08;;
11988;SDS011;6054;50.966;7.094;2022-12-07T08:00:45;30.43;;;16.40;;
11988;SDS011;6054;50.966;7.094;2022-12-07T08:03:12;29.43;;;16.20;;
11988;SDS011;6054;50.966;7.094;2022-12-07T08:05:39;27.20;;;16.43;;
11988;SDS011;6054;50.966;7.094;2022-12-07T08:08:05;26.20;;;15.57;;
11988;SDS011;6054;50.966;7.094;2022-12-07T08:10:32;33.17;;;16.73;;
11988;SDS011;6054;50.966;7.094;2022-12-07T08:13:00;34.43;;;17.40;;
11988;SDS011;6054;50.966;7.094;2022-12-07T08:15:40;27.93;;;16.30;;
11988;SDS011;6054;50.966;7.094;2022-12-07T08:18:10;31.33;;;17.67;;
11988;SDS011;6054;50.966;7.094;2022-12-07T08:20:38;30.60;;;18.00;;
11988;SDS011;6054;50.966;7.094;2022-12-07T08:23:06;32.77;;;17.53;;
11988;SDS011;6054;50.966;7.094;2022-12-07T08:25:33;36.13;;;18.23;;
11988;SDS011;6054;50.966;7.094;2022-12-07T08:28:00;49.00;;;19.60;;
11988;SDS011;6054;50.966;7.094;2022-12-07T08:30:28;39.53;;;18.33;;
11988;SDS011;6054;50.966;7.094;2022-12-07T08:32:55;32.47;;;17.57;;
11988;SDS011;6054;50.966;7.094;2022-12-07T08:35:24;35.37;;;17.70;;
11988;SDS011;6054;50.966;7.094;2022-12-07T08:37:51;36.93;;;17.80;;
11988;SDS011;6054;50.966;7.094;2022-12-07T08:40:18;32.77;;;17.57;;
11988;SDS011;6054;50.966;7.094;2022-12-07T08:42:48;33.07;;;18.23;;
11988;SDS011;6054;50.966;7.094;2022-12-07T08:45:15;34.47;;;17.87;;
11988;SDS011;6054;50.966;7.094;2022-12-07T08:47:44;29.63;;;18.33;;
11988;SDS011;6054;50.966;7.094;2022-12-07T08:50:13;29.50;;;18.17;;
11988;SDS011;6054;50.966;7.094;2022-12-07T08:52:42;29.90;;;17.73;;
11988;SDS011;6054;50.966;7.094;2022-12-07T08:55:09;33.60;;;18.33;;
11988;SDS011;6054;50.966;7.094;2022-12-07T08:57:37;27.70;;;18.33;;
11988;SDS011;6054;50.966;7.094;2022-12-07T09:00:05;26.37;;;17.23;;
11988;SDS011;6054;50.966;7.094;2022-12-07T09:02:33;30.47;;;17.37;;
11988;SDS011;6054;50.966;7.094;2022-12-07T09:05:00;29.40;;;18.00;;
11988;SDS011;6054;50.966;7.094;2022-12-07T09:07:27;28.30;;;17.47;;
11988;SDS011;6054;50.966;7.094;2022-12-07T09:09:55;27.23;;;17.83;;
11988;SDS011;6054;50.966;7.094;2022-12-07T09:12:22;29.37;;;17.53;;
11988;SDS011;6054;50.966;7.094;2022-12-07T09:14:48;28.43;;;17.10;;
11988;SDS011;6054;50.966;7.094;2022-12-07T09:17:15;27.20;;;18.13;;
11988;SDS011;6054;50.966;7.094;2022-12-07T09:19:42;25.83;;;17.03;;
11988;SDS011;6054;50.966;7.094;2022-12-07T09:22:09;34.83;;;22.10;;
11988;SDS011;6054;50.966;7.094;2022-12-07T09:24:36;37.73;;;24.03;;
11988;SDS011;6054;50.966;7.094;2022-12-07T09:27:05;26.43;;;17.30;;
11988;SDS011;6054;50.966;7.094;2022-12-07T09:29:32;31.43;;;21.83;;
11988;SDS011;6054;50.966;7.094;2022-12-07T09:31:58;28.97;;;16.07;;
11988;SDS011;6054;50.966;7.094;2022-12-07T09:34:25;27.70;;;17.10;;
11988;SDS011;6054;50.966;7.094;2022-12-07T09:36:52;22.80;;;14.70;;
11988;SDS011;6054;50.966;7.094;2022-12-07T09:39:19;21.33;;;14.53;;
11988;SDS011;6054;50.966;7.094;2022-12-07T09:41:47;24.38;;;14.40;;
11988;SDS011;6054;50.966;7.094;2022-12-07T09:44:17;21.57;;;14.60;;
11988;SDS011;6054;50.966;7.094;2022-12-07T09:57:00;23.35;;;16.13;;
11988;SDS011;6054;50.966;7.094;2022-12-07T09:59:28;23.07;;;14.27;;
11988;SDS011;6054;50.966;7.094;2022-12-07T10:01:55;23.33;;;14.17;;
11988;SDS011;6054;50.966;7.094;2022-12-07T10:04:48;17.83;;;12.18;;
11988;SDS011;6054;50.966;7.094;2022-12-07T10:07:15;18.63;;;12.67;;
11988;SDS011;6054;50.966;7.094;2022-12-07T10:09:41;20.57;;;12.50;;
11988;SDS011;6054;50.966;7.094;2022-12-07T10:12:09;23.45;;;13.30;;
11988;SDS011;6054;50.966;7.094;2022-12-07T10:14:39;19.27;;;12.53;;
11988;SDS011;6054;50.966;7.094;2022-12-07T10:17:32;18.70;;;11.93;;
11988;SDS011;6054;50.966;7.094;2022-12-07T10:25:32;14.67;;;10.07;;
11988;SDS011;6054;50.966;7.094;2022-12-07T10:28:10;14.30;;;10.17;;
11988;SDS011;6054;50.966;7.094;2022-12-07T10:30:51;17.43;;;11.10;;
11988;SDS011;6054;50.966;7.094;2022-12-07T10:33:33;14.30;;;9.60;;
11988;SDS011;6054;50.966;7.094;2022-12-07T10:36:14;16.77;;;10.43;;
11988;SDS011;6054;50.966;7.094;2022-12-07T10:38:44;14.03;;;10.07;;
11988;SDS011;6054;50.966;7.094;2022-12-07T10:41:13;17.37;;;10.33;;
11988;SDS011;6054;50.966;7.094;2022-12-07T10:43:46;22.63;;;11.70;;
11988;SDS011;6054;50.966;7.094;2022-12-07T10:49:32;12.98;;;8.70;;
11988;SDS011;6054;50.966;7.094;2022-12-07T10:52:22;17.07;;;9.40;;
11988;SDS011;6054;50.966;7.094;2022-12-07T10:55:03;12.77;;;8.80;;
11988;SDS011;6054;50.966;7.094;2022-12-07T10:57:43;20.05;;;9.55;;
11988;SDS011;6054;50.966;7.094;2022-12-07T11:00:18;15.17;;;9.30;;
11988;SDS011;6054;50.966;7.094;2022-12-07T11:02:54;19.03;;;9.37;;
11988;SDS011;6054;50.966;7.094;2022-12-07T11:05:35;13.38;;;8.50;;
11988;SDS011;6054;50.966;7.094;2022-12-07T11:08:13;15.37;;;8.60;;
11988;SDS011;6054;50.966;7.094;2022-12-07T11:10:48;13.20;;;7.67;;
11988;SDS011;6054;50.966;7.094;2022-12-07T11:13:22;14.60;;;8.30;;
11988;SDS011;6054;50.966;7.094;2022-12-07T11:16:01;12.50;;;7.72;;
11988;SDS011;6054;50.966;7.094;2022-12-07T11:18:36;16.70;;;7.70;;
11988;SDS011;6054;50.966;7.094;2022-12-07T11:21:12;12.98;;;8.05;;
11988;SDS011;6054;50.966;7.094;2022-12-07T11:23:46;16.35;;;7.40;;
11988;SDS011;6054;50.966;7.094;2022-12-07T11:26:23;13.70;;;7.85;;
11988;SDS011;6054;50.966;7.094;2022-12-07T11:29:05;9.35;;;6.78;;
11988;SDS011;6054;50.966;7.094;2022-12-07T11:31:49;13.60;;;8.03;;
11988;SDS011;6054;50.966;7.094;2022-12-07T11:34:30;14.68;;;7.32;;
11988;SDS011;6054;50.966;7.094;2022-12-07T11:37:03;13.37;;;7.93;;
11988;SDS011;6054;50.966;7.094;2022-12-07T11:39:44;13.43;;;8.23;;
11988;SDS011;6054;50.966;7.094;2022-12-07T11:42:19;13.87;;;7.57;;
11988;SDS011;6054;50.966;7.094;2022-12-07T11:44:51;17.10;;;8.05;;
11988;SDS011;6054;50.966;7.094;2022-12-07T11:47:23;11.75;;;7.63;;
11988;SDS011;6054;50.966;7.094;2022-12-07T11:49:58;11.80;;;7.73;;
11988;SDS011;6054;50.966;7.094;2022-12-07T11:52:39;13.97;;;7.87;;
11988;SDS011;6054;50.966;7.094;2022-12-07T11:55:16;9.73;;;6.93;;
11988;SDS011;6054;50.966;7.094;2022-12-07T11:57:49;16.30;;;7.47;;
11988;SDS011;6054;50.966;7.094;2022-12-07T12:00:20;15.43;;;8.33;;
11988;SDS011;6054;50.966;7.094;2022-12-07T12:02:48;13.53;;;8.33;;
11988;SDS011;6054;50.966;7.094;2022-12-07T12:05:22;16.83;;;7.83;;
11988;SDS011;6054;50.966;7.094;2022-12-07T12:07:52;15.68;;;8.13;;
11988;SDS011;6054;50.966;7.094;2022-12-07T12:10:27;13.93;;;7.33;;
11988;SDS011;6054;50.966;7.094;2022-12-07T12:16:10;9.83;;;6.37;;
11988;SDS011;6054;50.966;7.094;2022-12-07T12:18:53;12.90;;;6.13;;
11988;SDS011;6054;50.966;7.094;2022-12-07T12:21:30;12.13;;;6.88;;
11988;SDS011;6054;50.966;7.094;2022-12-07T12:23:57;10.00;;;5.57;;
11988;SDS011;6054;50.966;7.094;2022-12-07T12:26:29;11.57;;;6.20;;
11988;SDS011;6054;50.966;7.094;2022-12-07T12:28:58;16.25;;;6.60;;
11988;SDS011;6054;50.966;7.094;2022-12-07T12:31:32;14.60;;;6.73;;
11988;SDS011;6054;50.966;7.094;2022-12-07T12:34:02;12.23;;;6.25;;
11988;SDS011;6054;50.966;7.094;2022-12-07T12:36:45;9.83;;;5.57;;
11988;SDS011;6054;50.966;7.094;2022-12-07T12:39:13;13.23;;;6.10;;
11988;SDS011;6054;50.966;7.094;2022-12-07T12:41:59;11.65;;;6.25;;
11988;SDS011;6054;50.966;7.094;2022-12-07T12:47:39;16.40;;;6.30;;
11988;SDS011;6054;50.966;7.094;2022-12-07T12:50:23;13.50;;;6.50;;
11988;SDS011;6054;50.966;7.094;2022-12-07T12:52:54;13.70;;;6.03;;
11988;SDS011;6054;50.966;7.094;2022-12-07T12:58:36;16.57;;;7.13;;
11988;SDS011;6054;50.966;7.094;2022-12-07T13:04:18;14.67;;;7.40;;
11988;SDS011;6054;50.966;7.094;2022-12-07T13:07:10;13.67;;;7.07;;
11988;SDS011;6054;50.966;7.094;2022-12-07T13:09:42;12.95;;;6.68;;
11988;SDS011;6054;50.966;7.094;2022-12-07T13:12:12;11.80;;;7.20;;
11988;SDS011;6054;50.966;7.094;2022-12-07T13:14:42;14.40;;;8.33;;
11988;SDS011;6054;50.966;7.094;2022-12-07T13:20:42;12.25;;;7.70;;
11988;SDS011;6054;50.966;7.094;2022-12-07T13:23:13;11.52;;;7.53;;
11988;SDS011;6054;50.966;7.094;2022-12-07T13:25:49;13.60;;;7.30;;
11988;SDS011;6054;50.966;7.094;2022-12-07T13:28:22;13.93;;;7.70;;
11988;SDS011;6054;50.966;7.094;2022-12-07T13:33:52;15.07;;;7.47;;
11988;SDS011;6054;50.966;7.094;2022-12-07T13:36:20;14.00;;;8.05;;
11988;SDS011;6054;50.966;7.094;2022-12-07T13:38:49;13.20;;;7.40;;
11988;SDS011;6054;50.966;7.094;2022-12-07T13:41:20;12.73;;;6.57;;
11988;SDS011;6054;50.966;7.094;2022-12-07T13:43:50;10.88;;;6.75;;
11988;SDS011;6054;50.966;7.094;2022-12-07T13:46:20;12.50;;;6.97;;
11988;SDS011;6054;50.966;7.094;2022-12-07T13:48:56;12.70;;;6.30;;
11988;SDS011;6054;50.966;7.094;2022-12-07T13:51:23;12.07;;;6.70;;
11988;SDS011;6054;50.966;7.094;2022-12-07T13:53:52;13.53;;;6.93;;
11988;SDS011;6054;50.966;7.094;2022-12-07T13:56:26;11.43;;;6.80;;
11988;SDS011;6054;50.966;7.094;2022-12-07T13:58:58;15.48;;;7.10;;
11988;SDS011;6054;50.966;7.094;2022-12-07T14:01:25;14.07;;;7.47;;
11988;SDS011;6054;50.966;7.094;2022-12-07T14:03:52;11.77;;;7.20;;
11988;SDS011;6054;50.966;7.094;2022-12-07T14:06:23;13.95;;;6.68;;
11988;SDS011;6054;50.966;7.094;2022-12-07T14:09:15;14.63;;;6.72;;
11988;SDS011;6054;50.966;7.094;2022-12-07T14:11:45;11.60;;;7.00;;
11988;SDS011;6054;50.966;7.094;2022-12-07T14:14:15;13.23;;;6.57;;
11988;SDS011;6054;50.966;7.094;2022-12-07T14:16:54;12.50;;;6.95;;
11988;SDS011;6054;50.966;7.094;2022-12-07T14:19:40;16.85;;;7.22;;
11988;SDS011;6054;50.966;7.094;2022-12-07T14:22:17;15.63;;;6.97;;
11988;SDS011;6054;50.966;7.094;2022-12-07T14:24:47;10.35;;;6.95;;
11988;SDS011;6054;50.966;7.094;2022-12-07T14:27:20;12.40;;;7.47;;
11988;SDS011;6054;50.966;7.094;2022-12-07T14:29:50;10.80;;;7.03;;
11988;SDS011;6054;50.966;7.094;2022-12-07T14:32:19;9.50;;;6.78;;
11988;SDS011;6054;50.966;7.094;2022-12-07T14:34:53;16.80;;;7.05;;
11988;SDS011;6054;50.966;7.094;2022-12-07T14:37:25;13.25;;;6.10;;
11988;SDS011;6054;50.966;7.094;2022-12-07T14:39:53;11.88;;;7.25;;
11988;SDS011;6054;50.966;7.094;2022-12-07T14:42:21;11.30;;;6.55;;
11988;SDS011;6054;50.966;7.094;2022-12-07T14:44:50;11.53;;;6.60;;
11988;SDS011;6054;50.966;7.094;2022-12-07T14:47:17;10.07;;;6.30;;
11988;SDS011;6054;50.966;7.094;2022-12-07T14:49:44;11.70;;;6.50;;
11988;SDS011;6054;50.966;7.094;2022-12-07T14:52:13;11.85;;;5.82;;
11988;SDS011;6054;50.966;7.094;2022-12-07T14:54:42;12.00;;;6.22;;
11988;SDS011;6054;50.966;7.094;2022-12-07T14:57:09;13.57;;;6.77;;
11988;SDS011;6054;50.966;7.094;2022-12-07T14:59:38;11.97;;;6.40;;
11988;SDS011;6054;50.966;7.094;2022-12-07T15:02:05;14.13;;;7.00;;
11988;SDS011;6054;50.966;7.094;2022-12-07T15:04:32;12.40;;;6.45;;
11988;SDS011;6054;50.966;7.094;2022-12-07T15:07:00;12.70;;;6.72;;
11988;SDS011;6054;50.966;7.094;2022-12-07T15:09:28;11.10;;;6.72;;
11988;SDS011;6054;50.966;7.094;2022-12-07T15:11:55;12.88;;;7.07;;
11988;SDS011;6054;50.966;7.094;2022-12-07T15:14:22;11.00;;;6.60;;
11988;SDS011;6054;50.966;7.094;2022-12-07T15:16:50;11.63;;;6.68;;
11988;SDS011;6054;50.966;7.094;2022-12-07T15:19:17;12.23;;;6.90;;
11988;SDS011;6054;50.966;7.094;2022-12-07T15:21:47;14.13;;;6.78;;
11988;SDS011;6054;50.966;7.094;2022-12-07T15:24:15;13.97;;;7.30;;
11988;SDS011;6054;50.966;7.094;2022-12-07T15:26:41;15.30;;;7.35;;
11988;SDS011;6054;50.966;7.094;2022-12-07T15:29:09;11.57;;;6.80;;
11988;SDS011;6054;50.966;7.094;2022-12-07T15:31:37;9.83;;;7.20;;
11988;SDS011;6054;50.966;7.094;2022-12-07T15:34:05;11.77;;;7.55;;
11988;SDS011;6054;50.966;7.094;2022-12-07T15:36:32;11.27;;;7.17;;
11988;SDS011;6054;50.966;7.094;2022-12-07T15:39:00;8.80;;;7.07;;